sensor_id;sensor_type;location;lat;lon;timestamp;pressure;altitude;pressure_sealevel;temperature;humidity
9460;BME280;4768;42.664;23.240;2022-12-31T00:00:09;-9558.44;;;5.21;100.00
9460;BME280;4768;42.664;23.240;2022-12-31T00:02:36;-9564.38;;;5.42;100.00
9460;BME280;4768;42.664;23.240;2022-12-31T00:05:04;-9561.25;;;5.31;100.00
9460;BME280;4768;42.664;23.240;2022-12-31T00:07:34;-9556.03;;;5.13;100.00
9460;BME280;4768;42.664;23.240;2022-12-31T00:10:01;-9557.72;;;5.19;100.00
9460;BME280;4768;42.664;23.240;2022-12-31T00:12:28;-9563.09;;;5.37;100.00
9460;BME280;4768;42.664;23.240;2022-12-31T00:14:55;-9562.81;;;5.36;100.00
9460;BME280;4768;42.664;23.240;2022-12-31T00:17:22;-9567.50;;;5.53;100.00
9460;BME280;4768;42.664;23.240;2022-12-31T00:19:48;-9575.84;;;5.82;100.00
9460;BME280;4768;42.664;23.240;2022-12-31T00:22:15;-9574.56;;;5.78;100.00
9460;BME280;4768;42.664;23.240;2022-12-31T00:24:43;-9573.56;;;5.74;100.00
9460;BME280;4768;42.664;23.240;2022-12-31T00:27:10;-9571.31;;;5.66;100.00
9460;BME280;4768;42.664;23.240;2022-12-31T00:29:37;-9576.41;;;5.84;100.00
9460;BME280;4768;42.664;23.240;2022-12-31T00:32:04;-9566.34;;;5.49;100.00
9460;BME280;4768;42.664;23.240;2022-12-31T00:34:31;-9573.16;;;5.73;100.00
9460;BME280;4768;42.664;23.240;2022-12-31T00:36:57;-9570.59;;;5.64;100.00
9460;BME280;4768;42.664;23.240;2022-12-31T00:39:24;-9569.31;;;5.59;100.00
9460;BME280;4768;42.664;23.240;2022-12-31T00:41:52;-9569.88;;;5.61;100.00
9460;BME280;4768;42.664;23.240;2022-12-31T00:44:19;-9569.19;;;5.59;100.00
9460;BME280;4768;42.664;23.240;2022-12-31T00:46:46;-9571.72;;;5.68;100.00
9460;BME280;4768;42.664;23.240;2022-12-31T00:49:13;-9577.13;;;5.86;100.00
9460;BME280;4768;42.664;23.240;2022-12-31T00:51:40;-9582.34;;;6.05;100.00
9460;BME280;4768;42.664;23.240;2022-12-31T00:54:06;-9588.28;;;6.25;100.00
9460;BME280;4768;42.664;23.240;2022-12-31T00:56:34;-9593.66;;;6.44;100.00
9460;BME280;4768;42.664;23.240;2022-12-31T00:59:02;-9595.50;;;6.51;100.00
9460;BME280;4768;42.664;23.240;2022-12-31T01:01:31;-9586.59;;;6.20;100.00
9460;BME280;4768;42.664;23.240;2022-12-31T01:04:00;-9578.25;;;5.90;100.00
9460;BME280;4768;42.664;23.240;2022-12-31T01:06:27;-9573.84;;;5.75;100.00
9460;BME280;4768;42.664;23.240;2022-12-31T01:08:54;-9570.47;;;5.63;100.00
9460;BME280;4768;42.664;23.240;2022-12-31T01:11:21;-9571.31;;;5.66;100.00
9460;BME280;4768;42.664;23.240;2022-12-31T01:13:51;-9570.47;;;5.63;100.00
9460;BME280;4768;42.664;23.240;2022-12-31T01:16:21;-9569.75;;;5.61;100.00
9460;BME280;4768;42.664;23.240;2022-12-31T01:18:48;-9568.19;;;5.55;100.00
9460;BME280;4768;42.664;23.240;2022-12-31T01:21:16;-9560.97;;;5.30;100.00
9460;BME280;4768;42.664;23.240;2022-12-31T01:23:43;-9558.72;;;5.22;100.00
9460;BME280;4768;42.664;23.240;2022-12-31T01:26:12;-9556.19;;;5.13;100.00
9460;BME280;4768;42.664;23.240;2022-12-31T01:28:39;-9549.53;;;4.90;100.00
9460;BME280;4768;42.664;23.240;2022-12-31T01:31:06;-9546.97;;;4.81;100.00
9460;BME280;4768;42.664;23.240;2022-12-31T01:33:35;-9544.31;;;4.72;100.00
9460;BME280;4768;42.664;23.240;2022-12-31T01:36:03;-9543.44;;;4.69;100.00
9460;BME280;4768;42.664;23.240;2022-12-31T01:38:31;-9538.22;;;4.50;100.00
9460;BME280;4768;42.664;23.240;2022-12-31T01:40:58;-9534.69;;;4.38;100.00
9460;BME280;4768;42.664;23.240;2022-12-31T01:43:42;-9532.72;;;4.31;100.00
9460;BME280;4768;42.664;23.240;2022-12-31T01:46:11;-9530.72;;;4.24;100.00
9460;BME280;4768;42.664;23.240;2022-12-31T01:48:41;-9530.31;;;4.23;100.00
9460;BME280;4768;42.664;23.240;2022-12-31T01:51:08;-9528.47;;;4.16;100.00
9460;BME280;4768;42.664;23.240;2022-12-31T01:53:36;-9527.47;;;4.13;100.00
9460;BME280;4768;42.664;23.240;2022-12-31T01:56:03;-9524.38;;;4.02;100.00
9460;BME280;4768;42.664;23.240;2022-12-31T01:58:33;-9522.97;;;3.97;100.00
9460;BME280;4768;42.664;23.240;2022-12-31T02:01:02;-9522.69;;;3.96;100.00
9460;BME280;4768;42.664;23.240;2022-12-31T02:03:30;-9521.41;;;3.91;100.00
9460;BME280;4768;42.664;23.240;2022-12-31T02:06:02;-9522.13;;;3.94;100.00
9460;BME280;4768;42.664;23.240;2022-12-31T02:08:30;-9522.25;;;3.94;100.00
9460;BME280;4768;42.664;23.240;2022-12-31T02:10:57;-9523.53;;;3.99;100.00
9460;BME280;4768;42.664;23.240;2022-12-31T02:13:24;-9528.34;;;4.16;100.00
9460;BME280;4768;42.664;23.240;2022-12-31T02:15:59;-9529.03;;;4.18;100.00
9460;BME280;4768;42.664;23.240;2022-12-31T02:18:32;-9539.91;;;4.56;100.00
9460;BME280;4768;42.664;23.240;2022-12-31T02:21:39;-9544.88;;;4.74;100.00
9460;BME280;4768;42.664;23.240;2022-12-31T02:24:25;-9536.81;;;4.45;100.00
9460;BME280;4768;42.664;23.240;2022-12-31T02:27:00;-9532.16;;;4.29;100.00
9460;BME280;4768;42.664;23.240;2022-12-31T02:29:59;-9527.19;;;4.12;100.00
9460;BME280;4768;42.664;23.240;2022-12-31T02:32:34;-9523.81;;;4.00;100.00
9460;BME280;4768;42.664;23.240;2022-12-31T02:35:08;-9529.47;;;4.20;100.00
9460;BME280;4768;42.664;23.240;2022-12-31T02:37:37;-9536.53;;;4.44;100.00
9460;BME280;4768;42.664;23.240;2022-12-31T02:40:09;-9540.47;;;4.58;100.00
9460;BME280;4768;42.664;23.240;2022-12-31T02:42:37;-9545.28;;;4.75;100.00
9460;BME280;4768;42.664;23.240;2022-12-31T02:45:06;-9533.41;;;4.33;100.00
9460;BME280;4768;42.664;23.240;2022-12-31T02:47:49;-9538.22;;;4.50;100.00
9460;BME280;4768;42.664;23.240;2022-12-31T02:50:26;-9547.84;;;4.84;100.00
9460;BME280;4768;42.664;23.240;2022-12-31T02:53:00;-9534.84;;;4.38;100.00
9460;BME280;4768;42.664;23.240;2022-12-31T02:55:33;-9549.81;;;4.91;100.00
9460;BME280;4768;42.664;23.240;2022-12-31T02:58:07;-9547.53;;;4.83;100.00
9460;BME280;4768;42.664;23.240;2022-12-31T03:00:41;-9548.25;;;4.85;100.00
9460;BME280;4768;42.664;23.240;2022-12-31T03:03:28;-9543.72;;;4.70;100.00
9460;BME280;4768;42.664;23.240;2022-12-31T03:05:55;-9541.91;;;4.63;100.00
9460;BME280;4768;42.664;23.240;2022-12-31T03:08:24;-9544.44;;;4.72;100.00
9460;BME280;4768;42.664;23.240;2022-12-31T03:10:51;-9548.81;;;4.87;100.00
9460;BME280;4768;42.664;23.240;2022-12-31T03:13:21;-9550.09;;;4.92;100.00
9460;BME280;4768;42.664;23.240;2022-12-31T03:15:48;-9547.41;;;4.82;100.00
9460;BME280;4768;42.664;23.240;2022-12-31T03:18:16;-9544.16;;;4.71;100.00
9460;BME280;4768;42.664;23.240;2022-12-31T03:21:10;-9543.16;;;4.68;100.00
9460;BME280;4768;42.664;23.240;2022-12-31T03:23:55;-9541.47;;;4.62;100.00
9460;BME280;4768;42.664;23.240;2022-12-31T03:26:39;-9539.78;;;4.56;100.00
9460;BME280;4768;42.664;23.240;2022-12-31T03:29:05;-9539.50;;;4.55;100.00
9460;BME280;4768;42.664;23.240;2022-12-31T03:31:33;-9542.75;;;4.66;100.00
9460;BME280;4768;42.664;23.240;2022-12-31T03:34:00;-9541.91;;;4.63;100.00
9460;BME280;4768;42.664;23.240;2022-12-31T03:36:27;-9546.00;;;4.78;100.00
9460;BME280;4768;42.664;23.240;2022-12-31T03:38:53;-9546.97;;;4.81;100.00
9460;BME280;4768;42.664;23.240;2022-12-31T03:41:20;-9545.56;;;4.76;100.00
9460;BME280;4768;42.664;23.240;2022-12-31T03:43:47;-9552.34;;;5.00;100.00
9460;BME280;4768;42.664;23.240;2022-12-31T03:46:13;-9554.19;;;5.06;100.00
9460;BME280;4768;42.664;23.240;2022-12-31T03:48:41;-9548.53;;;4.86;100.00
9460;BME280;4768;42.664;23.240;2022-12-31T03:51:08;-9547.97;;;4.84;100.00
9460;BME280;4768;42.664;23.240;2022-12-31T03:53:35;-9546.41;;;4.79;100.00
9460;BME280;4768;42.664;23.240;2022-12-31T03:56:01;-9541.75;;;4.63;100.00
9460;BME280;4768;42.664;23.240;2022-12-31T03:58:28;-9539.91;;;4.56;100.00
9460;BME280;4768;42.664;23.240;2022-12-31T04:00:55;-9537.22;;;4.47;100.00
9460;BME280;4768;42.664;23.240;2022-12-31T04:03:22;-9533.00;;;4.32;100.00
9460;BME280;4768;42.664;23.240;2022-12-31T04:05:54;-9526.22;;;4.08;100.00
9460;BME280;4768;42.664;23.240;2022-12-31T04:08:21;-9523.38;;;3.98;100.00
9460;BME280;4768;42.664;23.240;2022-12-31T04:10:48;-9525.09;;;4.04;100.00
9460;BME280;4768;42.664;23.240;2022-12-31T04:13:15;-9530.16;;;4.22;100.00
9460;BME280;4768;42.664;23.240;2022-12-31T04:15:41;-9536.25;;;4.43;100.00
9460;BME280;4768;42.664;23.240;2022-12-31T04:18:08;-9548.53;;;4.86;100.00
9460;BME280;4768;42.664;23.240;2022-12-31T04:20:35;-9548.69;;;4.87;100.00
9460;BME280;4768;42.664;23.240;2022-12-31T04:23:03;-9545.28;;;4.75;100.00
9460;BME280;4768;42.664;23.240;2022-12-31T04:25:30;-9542.88;;;4.67;100.00
9460;BME280;4768;42.664;23.240;2022-12-31T04:27:57;-9539.78;;;4.56;100.00
9460;BME280;4768;42.664;23.240;2022-12-31T04:30:23;-9527.75;;;4.14;100.00
9460;BME280;4768;42.664;23.240;2022-12-31T04:32:50;-9526.91;;;4.11;100.00
9460;BME280;4768;42.664;23.240;2022-12-31T04:35:17;-9518.31;;;3.81;100.00
9460;BME280;4768;42.664;23.240;2022-12-31T04:37:43;-9519.00;;;3.83;100.00
9460;BME280;4768;42.664;23.240;2022-12-31T04:40:12;-9518.31;;;3.81;100.00
9460;BME280;4768;42.664;23.240;2022-12-31T04:42:38;-9511.09;;;3.55;100.00
9460;BME280;4768;42.664;23.240;2022-12-31T04:45:06;-9507.72;;;3.43;100.00
9460;BME280;4768;42.664;23.240;2022-12-31T04:47:33;-9505.72;;;3.36;100.00
9460;BME280;4768;42.664;23.240;2022-12-31T04:50:00;-9505.88;;;3.37;100.00
9460;BME280;4768;42.664;23.240;2022-12-31T04:52:26;-9512.38;;;3.60;100.00
9460;BME280;4768;42.664;23.240;2022-12-31T04:54:53;-9513.06;;;3.62;100.00
9460;BME280;4768;42.664;23.240;2022-12-31T04:57:21;-9505.59;;;3.36;100.00
9460;BME280;4768;42.664;23.240;2022-12-31T04:59:48;-9503.63;;;3.29;100.00
9460;BME280;4768;42.664;23.240;2022-12-31T05:02:14;-9501.50;;;3.22;100.00
9460;BME280;4768;42.664;23.240;2022-12-31T05:04:41;-9507.72;;;3.43;100.00
9460;BME280;4768;42.664;23.240;2022-12-31T05:07:08;-9516.59;;;3.75;100.00
9460;BME280;4768;42.664;23.240;2022-12-31T05:09:34;-9514.22;;;3.66;100.00
9460;BME280;4768;42.664;23.240;2022-12-31T05:12:01;-9515.91;;;3.72;100.00
9460;BME280;4768;42.664;23.240;2022-12-31T05:14:29;-9521.56;;;3.92;100.00
9460;BME280;4768;42.664;23.240;2022-12-31T05:16:56;-9513.06;;;3.62;100.00
9460;BME280;4768;42.664;23.240;2022-12-31T05:19:23;-9516.19;;;3.73;100.00
9460;BME280;4768;42.664;23.240;2022-12-31T05:21:50;-9516.75;;;3.75;100.00
9460;BME280;4768;42.664;23.240;2022-12-31T05:24:30;-9509.13;;;3.48;100.00
9460;BME280;4768;42.664;23.240;2022-12-31T05:26:57;-9508.56;;;3.46;100.00
9460;BME280;4768;42.664;23.240;2022-12-31T05:29:24;-9505.44;;;3.35;100.00
9460;BME280;4768;42.664;23.240;2022-12-31T05:31:52;-9504.59;;;3.33;100.00
9460;BME280;4768;42.664;23.240;2022-12-31T05:34:19;-9500.94;;;3.20;100.00
9460;BME280;4768;42.664;23.240;2022-12-31T05:36:45;-9499.53;;;3.15;100.00
9460;BME280;4768;42.664;23.240;2022-12-31T05:39:12;-9501.06;;;3.20;100.00
9460;BME280;4768;42.664;23.240;2022-12-31T05:41:39;-9501.50;;;3.22;100.00
9460;BME280;4768;42.664;23.240;2022-12-31T05:44:05;-9501.78;;;3.23;100.00
9460;BME280;4768;42.664;23.240;2022-12-31T05:46:32;-9506.16;;;3.38;100.00
9460;BME280;4768;42.664;23.240;2022-12-31T05:49:00;-9515.75;;;3.72;100.00
9460;BME280;4768;42.664;23.240;2022-12-31T05:51:27;-9515.75;;;3.72;100.00
9460;BME280;4768;42.664;23.240;2022-12-31T05:53:54;-9513.50;;;3.64;100.00
9460;BME280;4768;42.664;23.240;2022-12-31T05:56:20;-9509.53;;;3.50;100.00
9460;BME280;4768;42.664;23.240;2022-12-31T05:58:47;-9503.47;;;3.29;100.00
9460;BME280;4768;42.664;23.240;2022-12-31T06:01:14;-9505.44;;;3.35;100.00
9460;BME280;4768;42.664;23.240;2022-12-31T06:03:40;-9505.72;;;3.36;100.00
9460;BME280;4768;42.664;23.240;2022-12-31T06:06:08;-9502.78;;;3.26;100.00
9460;BME280;4768;42.664;23.240;2022-12-31T06:08:35;-9505.59;;;3.36;100.00
9460;BME280;4768;42.664;23.240;2022-12-31T06:11:02;-9507.72;;;3.43;100.00
9460;BME280;4768;42.664;23.240;2022-12-31T06:13:29;-9510.09;;;3.52;100.00
9460;BME280;4768;42.664;23.240;2022-12-31T06:15:55;-9511.38;;;3.56;100.00
9460;BME280;4768;42.664;23.240;2022-12-31T06:18:22;-9512.66;;;3.61;100.00
9460;BME280;4768;42.664;23.240;2022-12-31T06:20:49;-9509.53;;;3.50;100.00
9460;BME280;4768;42.664;23.240;2022-12-31T06:23:17;-9508.97;;;3.48;100.00
9460;BME280;4768;42.664;23.240;2022-12-31T06:25:44;-9511.94;;;3.58;100.00
9460;BME280;4768;42.664;23.240;2022-12-31T06:28:10;-9513.06;;;3.62;100.00
9460;BME280;4768;42.664;23.240;2022-12-31T06:30:37;-9513.34;;;3.63;100.00
9460;BME280;4768;42.664;23.240;2022-12-31T06:33:04;-9515.63;;;3.71;100.00
9460;BME280;4768;42.664;23.240;2022-12-31T06:35:30;-9510.81;;;3.54;100.00
9460;BME280;4768;42.664;23.240;2022-12-31T06:37:57;-9514.91;;;3.69;100.00
9460;BME280;4768;42.664;23.240;2022-12-31T06:40:25;-9517.88;;;3.79;100.00
9460;BME280;4768;42.664;23.240;2022-12-31T06:42:52;-9523.53;;;3.99;100.00
9460;BME280;4768;42.664;23.240;2022-12-31T06:45:19;-9523.94;;;4.00;100.00
9460;BME280;4768;42.664;23.240;2022-12-31T06:47:46;-9527.75;;;4.14;100.00
9460;BME280;4768;42.664;23.240;2022-12-31T06:50:12;-9532.16;;;4.29;100.00
9460;BME280;4768;42.664;23.240;2022-12-31T06:52:39;-9535.41;;;4.40;100.00
9460;BME280;4768;42.664;23.240;2022-12-31T06:55:07;-9538.09;;;4.50;100.00
9460;BME280;4768;42.664;23.240;2022-12-31T06:57:36;-9541.63;;;4.62;100.00
9460;BME280;4768;42.664;23.240;2022-12-31T07:00:04;-9546.28;;;4.78;100.00
9460;BME280;4768;42.664;23.240;2022-12-31T07:02:53;-9554.91;;;5.09;100.00
9460;BME280;4768;42.664;23.240;2022-12-31T07:05:27;-9559.16;;;5.24;100.00
9460;BME280;4768;42.664;23.240;2022-12-31T07:08:11;-9559.44;;;5.25;100.00
9460;BME280;4768;42.664;23.240;2022-12-31T07:10:45;-9565.78;;;5.47;100.00
9460;BME280;4768;42.664;23.240;2022-12-31T07:13:28;-9570.59;;;5.64;100.00
9460;BME280;4768;42.664;23.240;2022-12-31T07:16:11;-9576.69;;;5.85;100.00
9460;BME280;4768;42.664;23.240;2022-12-31T07:18:45;-9577.97;;;5.89;100.00
9460;BME280;4768;42.664;23.240;2022-12-31T07:21:15;-9578.66;;;5.92;100.00
9460;BME280;4768;42.664;23.240;2022-12-31T07:23:42;-9580.09;;;5.97;100.00
9460;BME280;4768;42.664;23.240;2022-12-31T07:26:17;-9585.31;;;6.15;100.00
9460;BME280;4768;42.664;23.240;2022-12-31T07:28:53;-9586.31;;;6.19;100.00
9460;BME280;4768;42.664;23.240;2022-12-31T07:31:32;-9581.78;;;6.03;100.00
9460;BME280;4768;42.664;23.240;2022-12-31T07:34:05;-9580.94;;;6.00;100.00
9460;BME280;4768;42.664;23.240;2022-12-31T07:36:50;-9584.47;;;6.12;100.00
9460;BME280;4768;42.664;23.240;2022-12-31T07:39:21;-9588.72;;;6.27;100.00
9460;BME280;4768;42.664;23.240;2022-12-31T07:41:59;-9595.22;;;6.50;100.00
9460;BME280;4768;42.664;23.240;2022-12-31T07:44:36;-9588.16;;;6.25;100.00
9460;BME280;4768;42.664;23.240;2022-12-31T07:47:13;-9583.06;;;6.07;100.00
9460;BME280;4768;42.664;23.240;2022-12-31T07:49:45;-9579.22;;;5.94;100.00
9460;BME280;4768;42.664;23.240;2022-12-31T07:52:12;-9588.72;;;6.27;100.00
9460;BME280;4768;42.664;23.240;2022-12-31T07:54:39;-9590.97;;;6.35;100.00
9460;BME280;4768;42.664;23.240;2022-12-31T07:57:05;-9586.31;;;6.19;100.00
9460;BME280;4768;42.664;23.240;2022-12-31T07:59:43;-9587.56;;;6.23;100.00
9460;BME280;4768;42.664;23.240;2022-12-31T08:02:19;-9591.25;;;6.36;100.00
9460;BME280;4768;42.664;23.240;2022-12-31T08:04:55;-9586.31;;;6.19;100.00
9460;BME280;4768;42.664;23.240;2022-12-31T08:07:32;-9590.97;;;6.35;100.00
9460;BME280;4768;42.664;23.240;2022-12-31T08:10:07;-9590.41;;;6.33;100.00
9460;BME280;4768;42.664;23.240;2022-12-31T08:12:36;-9587.16;;;6.22;100.00
9460;BME280;4768;42.664;23.240;2022-12-31T08:15:13;-9595.06;;;6.49;100.00
9460;BME280;4768;42.664;23.240;2022-12-31T08:17:40;-9592.69;;;6.41;100.00
9460;BME280;4768;42.664;23.240;2022-12-31T08:20:12;-9603.28;;;6.78;100.00
9460;BME280;4768;42.664;23.240;2022-12-31T08:22:55;-9601.16;;;6.71;100.00
9460;BME280;4768;42.664;23.240;2022-12-31T08:25:26;-9606.97;;;6.91;100.00
9460;BME280;4768;42.664;23.240;2022-12-31T08:28:02;-9601.03;;;6.70;100.00
9460;BME280;4768;42.664;23.240;2022-12-31T08:30:40;-9602.16;;;6.74;100.00
9460;BME280;4768;42.664;23.240;2022-12-31T08:33:12;-9607.97;;;6.94;100.00
9460;BME280;4768;42.664;23.240;2022-12-31T08:35:54;-9606.41;;;6.89;100.00
9460;BME280;4768;42.664;23.240;2022-12-31T08:38:29;-9600.03;;;6.67;100.00
9460;BME280;4768;42.664;23.240;2022-12-31T08:41:01;-9605.13;;;6.84;100.00
9460;BME280;4768;42.664;23.240;2022-12-31T08:43:39;-9607.81;;;6.94;100.00
9460;BME280;4768;42.664;23.240;2022-12-31T08:46:18;-9607.97;;;6.94;100.00
9460;BME280;4768;42.664;23.240;2022-12-31T08:48:46;-9610.38;;;7.03;100.00
9460;BME280;4768;42.664;23.240;2022-12-31T08:51:17;-9615.31;;;7.20;100.00
9460;BME280;4768;42.664;23.240;2022-12-31T08:53:45;-9615.75;;;7.21;100.00
9460;BME280;4768;42.664;23.240;2022-12-31T08:56:22;-9613.47;;;7.14;100.00
9460;BME280;4768;42.664;23.240;2022-12-31T08:58:58;-9616.03;;;7.22;100.00
9460;BME280;4768;42.664;23.240;2022-12-31T09:01:34;-9621.41;;;7.41;100.00
9460;BME280;4768;42.664;23.240;2022-12-31T09:04:11;-9624.09;;;7.51;100.00
9460;BME280;4768;42.664;23.240;2022-12-31T09:06:46;-9621.84;;;7.43;100.00
9460;BME280;4768;42.664;23.240;2022-12-31T09:09:20;-9620.13;;;7.37;100.00
9460;BME280;4768;42.664;23.240;2022-12-31T09:11:58;-9628.34;;;7.66;100.00
9460;BME280;4768;42.664;23.240;2022-12-31T09:14:41;-9637.97;;;7.99;100.00
9460;BME280;4768;42.664;23.240;2022-12-31T09:17:28;-9632.75;;;7.81;100.00
9460;BME280;4768;42.664;23.240;2022-12-31T09:19:58;-9631.31;;;7.76;100.00
9460;BME280;4768;42.664;23.240;2022-12-31T09:22:25;-9637.13;;;7.96;100.00
9460;BME280;4768;42.664;23.240;2022-12-31T09:24:52;-9631.03;;;7.75;100.00
9460;BME280;4768;42.664;23.240;2022-12-31T09:27:23;-9637.28;;;7.97;100.00
9460;BME280;4768;42.664;23.240;2022-12-31T09:29:56;-9639.25;;;8.04;100.00
9460;BME280;4768;42.664;23.240;2022-12-31T09:32:31;-9642.66;;;8.16;100.00
9460;BME280;4768;42.664;23.240;2022-12-31T09:35:05;-9651.03;;;8.45;100.00
9460;BME280;4768;42.664;23.240;2022-12-31T09:37:44;-9640.97;;;8.10;100.00
9460;BME280;4768;42.664;23.240;2022-12-31T09:40:47;-9644.78;;;8.23;100.00
9460;BME280;4768;42.664;23.240;2022-12-31T09:43:39;-9650.88;;;8.44;100.00
9460;BME280;4768;42.664;23.240;2022-12-31T09:46:43;-9664.34;;;8.91;100.00
9460;BME280;4768;42.664;23.240;2022-12-31T09:49:37;-9652.00;;;8.48;100.00
9460;BME280;4768;42.664;23.240;2022-12-31T09:52:13;-9654.72;;;8.58;100.00
9460;BME280;4768;42.664;23.240;2022-12-31T09:54:51;-9666.91;;;9.00;100.00
9460;BME280;4768;42.664;23.240;2022-12-31T09:57:37;-9660.66;;;8.78;100.00
9460;BME280;4768;42.664;23.240;2022-12-31T10:00:10;-9669.31;;;9.09;100.00
9460;BME280;4768;42.664;23.240;2022-12-31T10:02:55;-9667.19;;;9.01;100.00
9460;BME280;4768;42.664;23.240;2022-12-31T10:05:48;-9664.78;;;8.93;100.00
9460;BME280;4768;42.664;23.240;2022-12-31T10:08:31;-9657.97;;;8.69;100.00
9460;BME280;4768;42.664;23.240;2022-12-31T10:11:05;-9667.03;;;9.01;100.00
9460;BME280;4768;42.664;23.240;2022-12-31T10:13:45;-9659.38;;;8.74;100.00
9460;BME280;4768;42.664;23.240;2022-12-31T10:16:42;-9662.78;;;8.86;100.00
9460;BME280;4768;42.664;23.240;2022-12-31T10:25:25;-9675.25;;;9.29;100.00
9460;BME280;4768;42.664;23.240;2022-12-31T10:27:59;-9688.88;;;9.77;100.00
9460;BME280;4768;42.664;23.240;2022-12-31T10:30:31;-9684.06;;;9.60;100.00
9460;BME280;4768;42.664;23.240;2022-12-31T10:33:07;-9675.56;;;9.30;100.00
9460;BME280;4768;42.664;23.240;2022-12-31T10:35:42;-9679.09;;;9.43;100.00
9460;BME280;4768;42.664;23.240;2022-12-31T10:38:37;-9701.66;;;10.21;100.00
9460;BME280;4768;42.664;23.240;2022-12-31T10:41:36;-9701.94;;;10.22;100.00
9460;BME280;4768;42.664;23.240;2022-12-31T10:44:50;-9684.47;;;9.62;100.00
9460;BME280;4768;42.664;23.240;2022-12-31T10:47:58;-9702.22;;;10.23;100.00
9460;BME280;4768;42.664;23.240;2022-12-31T10:50:52;-9708.91;;;10.47;100.00
9460;BME280;4768;42.664;23.240;2022-12-31T10:59:59;-9695.41;;;10.00;100.00
9460;BME280;4768;42.664;23.240;2022-12-31T11:03:03;-9700.09;;;10.16;100.00
9460;BME280;4768;42.664;23.240;2022-12-31T11:12:01;-9706.91;;;10.40;100.00
9460;BME280;4768;42.664;23.240;2022-12-31T11:14:54;-9709.75;;;10.50;100.00
9460;BME280;4768;42.664;23.240;2022-12-31T11:17:40;-9726.50;;;11.08;100.00
9460;BME280;4768;42.664;23.240;2022-12-31T11:20:30;-9723.22;;;10.97;100.00
9460;BME280;4768;42.664;23.240;2022-12-31T11:23:12;-9719.81;;;10.85;100.00
9460;BME280;4768;42.664;23.240;2022-12-31T11:25:48;-9714.72;;;10.67;100.00
9460;BME280;4768;42.664;23.240;2022-12-31T11:28:34;-9712.59;;;10.60;100.00
9460;BME280;4768;42.664;23.240;2022-12-31T11:31:29;-9715.41;;;10.69;100.00
9460;BME280;4768;42.664;23.240;2022-12-31T11:34:10;-9722.09;;;10.93;100.00
9460;BME280;4768;42.664;23.240;2022-12-31T11:36:43;-9716.28;;;10.72;100.00
9460;BME280;4768;42.664;23.240;2022-12-31T11:39:33;-9717.13;;;10.75;100.00
9460;BME280;4768;42.664;23.240;2022-12-31T11:42:17;-9724.66;;;11.02;100.00
9460;BME280;4768;42.664;23.240;2022-12-31T11:44:50;-9732.31;;;11.28;100.00
9460;BME280;4768;42.664;23.240;2022-12-31T11:50:26;-9754.78;;;12.07;100.00
9460;BME280;4768;42.664;23.240;2022-12-31T11:53:04;-9746.81;;;11.79;100.00
9460;BME280;4768;42.664;23.240;2022-12-31T11:55:52;-9744.53;;;11.71;100.00
9460;BME280;4768;42.664;23.240;2022-12-31T11:58:23;-9735.59;;;11.40;100.00
9460;BME280;4768;42.664;23.240;2022-12-31T12:00:56;-9737.00;;;11.45;100.00
9460;BME280;4768;42.664;23.240;2022-12-31T12:03:24;-9737.28;;;11.46;100.00
9460;BME280;4768;42.664;23.240;2022-12-31T12:05:52;-9741.69;;;11.61;100.00
9460;BME280;4768;42.664;23.240;2022-12-31T12:08:21;-9742.13;;;11.62;100.00
9460;BME280;4768;42.664;23.240;2022-12-31T12:10:50;-9742.25;;;11.63;100.00
9460;BME280;4768;42.664;23.240;2022-12-31T12:13:21;-9742.84;;;11.65;100.00
9460;BME280;4768;42.664;23.240;2022-12-31T12:15:49;-9742.25;;;11.63;100.00
9460;BME280;4768;42.664;23.240;2022-12-31T12:18:27;-9750.06;;;11.90;100.00
9460;BME280;4768;42.664;23.240;2022-12-31T12:21:05;-9747.25;;;11.80;100.00
9460;BME280;4768;42.664;23.240;2022-12-31T12:23:33;-9757.88;;;12.17;100.00
9460;BME280;4768;42.664;23.240;2022-12-31T12:26:00;-9757.31;;;12.15;100.00
9460;BME280;4768;42.664;23.240;2022-12-31T12:28:28;-9759.16;;;12.22;100.00
9460;BME280;4768;42.664;23.240;2022-12-31T12:30:58;-9761.16;;;12.29;100.00
9460;BME280;4768;42.664;23.240;2022-12-31T12:33:28;-9768.25;;;12.53;100.00
9460;BME280;4768;42.664;23.240;2022-12-31T12:36:06;-9764.56;;;12.41;100.00
9460;BME280;4768;42.664;23.240;2022-12-31T12:38:33;-9758.59;;;12.20;100.00
9460;BME280;4768;42.664;23.240;2022-12-31T12:41:03;-9754.78;;;12.07;100.00
9460;BME280;4768;42.664;23.240;2022-12-31T12:43:32;-9757.31;;;12.15;100.00
9460;BME280;4768;42.664;23.240;2022-12-31T12:46:01;-9762.16;;;12.32;100.00
9460;BME280;4768;42.664;23.240;2022-12-31T12:48:35;-9762.28;;;12.33;100.00
9460;BME280;4768;42.664;23.240;2022-12-31T12:51:13;-9760.03;;;12.25;100.00
9460;BME280;4768;42.664;23.240;2022-12-31T12:53:48;-9764.56;;;12.41;100.00
9460;BME280;4768;42.664;23.240;2022-12-31T12:56:26;-9769.53;;;12.58;100.00
9460;BME280;4768;42.664;23.240;2022-12-31T12:59:06;-9770.41;;;12.61;100.00
9460;BME280;4768;42.664;23.240;2022-12-31T13:01:41;-9766.69;;;12.48;100.00
9460;BME280;4768;42.664;23.240;2022-12-31T13:04:34;-9763.28;;;12.36;100.00
9460;BME280;4768;42.664;23.240;2022-12-31T13:07:17;-9761.44;;;12.30;100.00
9460;BME280;4768;42.664;23.240;2022-12-31T13:10:06;-9764.56;;;12.41;100.00
9460;BME280;4768;42.664;23.240;2022-12-31T13:12:40;-9769.81;;;12.59;100.00
9460;BME280;4768;42.664;23.240;2022-12-31T13:15:13;-9771.53;;;12.65;100.00
9460;BME280;4768;42.664;23.240;2022-12-31T13:17:51;-9771.97;;;12.66;100.00
9460;BME280;4768;42.664;23.240;2022-12-31T13:20:27;-9770.81;;;12.62;100.00
9460;BME280;4768;42.664;23.240;2022-12-31T13:22:59;-9768.53;;;12.54;100.00
9460;BME280;4768;42.664;23.240;2022-12-31T13:25:35;-9766.56;;;12.48;100.00
9460;BME280;4768;42.664;23.240;2022-12-31T13:28:10;-9765.41;;;12.44;100.00
9460;BME280;4768;42.664;23.240;2022-12-31T13:30:41;-9767.13;;;12.50;100.00
9460;BME280;4768;42.664;23.240;2022-12-31T13:33:17;-9768.25;;;12.53;100.00
9460;BME280;4768;42.664;23.240;2022-12-31T13:35:48;-9767.84;;;12.52;100.00
9460;BME280;4768;42.664;23.240;2022-12-31T13:38:18;-9768.41;;;12.54;100.00
9460;BME280;4768;42.664;23.240;2022-12-31T13:40:52;-9768.41;;;12.54;100.00
9460;BME280;4768;42.664;23.240;2022-12-31T13:43:31;-9766.97;;;12.49;100.00
9460;BME280;4768;42.664;23.240;2022-12-31T13:46:08;-9767.84;;;12.52;100.00
9460;BME280;4768;42.664;23.240;2022-12-31T13:48:41;-9767.84;;;12.52;100.00
9460;BME280;4768;42.664;23.240;2022-12-31T13:51:14;-9766.00;;;12.46;100.00
9460;BME280;4768;42.664;23.240;2022-12-31T13:53:45;-9761.31;;;12.29;100.00
9460;BME280;4768;42.664;23.240;2022-12-31T13:56:18;-9759.75;;;12.24;100.00
9460;BME280;4768;42.664;23.240;2022-12-31T13:58:50;-9756.75;;;12.13;100.00